createdAt,value
2018-10-17T00:00:19.780Z,20.00
2018-10-17T00:01:20.506Z,19.00
2018-10-17T00:02:21.229Z,17.00
2018-10-17T00:03:21.955Z,20.00
2018-10-17T00:04:22.679Z,19.00
2018-10-17T00:05:23.404Z,18.00
2018-10-17T00:06:24.136Z,19.00
2018-10-17T00:07:24.882Z,17.00
2018-10-17T00:08:25.603Z,17.00
2018-10-17T00:09:26.333Z,17.00
2018-10-17T00:10:27.057Z,17.00
2018-10-17T00:11:27.780Z,17.00
2018-10-17T00:12:28.505Z,19.00
2018-10-17T00:13:29.229Z,19.00
2018-10-17T00:14:29.953Z,18.00
2018-10-17T00:15:30.679Z,18.00
2018-10-17T00:16:31.405Z,17.00
2018-10-17T00:17:32.128Z,18.00
2018-10-17T00:18:32.853Z,19.00
2018-10-17T00:19:33.582Z,16.00
2018-10-17T00:20:34.304Z,19.00
2018-10-17T00:21:35.031Z,18.00
2018-10-17T00:22:35.760Z,17.00
2018-10-17T00:23:36.488Z,17.00
2018-10-17T00:24:37.205Z,18.00
2018-10-17T00:25:37.929Z,16.00
2018-10-17T00:26:38.681Z,17.00
2018-10-17T00:27:39.406Z,18.00
2018-10-17T00:28:40.157Z,17.00
2018-10-17T00:29:40.907Z,20.00
2018-10-17T00:30:41.633Z,20.00
2018-10-17T00:31:42.358Z,15.00
2018-10-17T00:32:43.082Z,16.00
2018-10-17T00:33:43.810Z,17.00
2018-10-17T00:34:44.532Z,19.00
2018-10-17T00:35:45.256Z,18.00
2018-10-17T00:36:45.980Z,17.00
2018-10-17T00:37:46.707Z,18.00
2018-10-17T00:38:47.456Z,19.00
2018-10-17T00:39:48.180Z,15.00
2018-10-17T00:40:48.907Z,18.00
2018-10-17T00:41:49.634Z,18.00
2018-10-17T00:42:50.357Z,18.00
2018-10-17T00:43:51.081Z,20.00
2018-10-17T00:44:51.808Z,19.00
2018-10-17T00:45:52.532Z,19.00
2018-10-17T00:46:53.331Z,16.00
2018-10-17T00:47:54.012Z,18.00
2018-10-17T00:48:54.735Z,19.00
2018-10-17T00:49:55.457Z,17.00
2018-10-17T00:50:56.185Z,18.00
2018-10-17T00:51:56.907Z,19.00
2018-10-17T00:52:57.671Z,15.00
2018-10-17T00:53:58.377Z,18.00
2018-10-17T00:54:59.151Z,17.00
2018-10-17T00:55:59.848Z,19.00
2018-10-17T00:57:00.597Z,19.00
2018-10-17T00:58:01.323Z,18.00
2018-10-17T00:59:02.110Z,16.00
2018-10-17T01:00:02.789Z,17.00
2018-10-17T01:01:03.628Z,17.00
2018-10-17T01:02:04.257Z,19.00
2018-10-17T01:03:04.984Z,17.00
2018-10-17T01:04:05.709Z,21.00
2018-10-17T01:05:06.473Z,17.00
2018-10-17T01:06:07.158Z,15.00
2018-10-17T01:07:07.986Z,16.00
2018-10-17T01:08:08.633Z,17.00
2018-10-17T01:09:09.357Z,16.00
2018-10-17T01:10:10.083Z,17.00
2018-10-17T01:11:10.919Z,18.00
2018-10-17T01:12:11.553Z,16.00
2018-10-17T01:13:12.330Z,17.00
2018-10-17T01:14:13.004Z,19.00
2018-10-17T01:15:13.728Z,15.00
2018-10-17T01:16:14.479Z,16.00
2018-10-17T01:17:15.254Z,17.00
2018-10-17T01:18:15.948Z,18.00
2018-10-17T01:19:16.671Z,16.00
2018-10-17T01:20:17.397Z,18.00
2018-10-17T01:21:18.121Z,19.00
2018-10-17T01:22:18.870Z,19.00
2018-10-17T01:23:19.598Z,18.00
2018-10-17T01:24:20.345Z,19.00
2018-10-17T01:25:21.069Z,18.00
2018-10-17T01:26:21.793Z,14.00
2018-10-17T01:27:22.544Z,17.00
2018-10-17T01:28:23.269Z,19.00
2018-10-17T01:29:23.994Z,17.00
2018-10-17T01:30:24.744Z,17.00
2018-10-17T01:31:25.474Z,19.00
2018-10-17T01:32:26.196Z,18.00
2018-10-17T01:33:26.919Z,19.00
2018-10-17T01:34:27.644Z,19.00
2018-10-17T01:35:28.369Z,18.00
2018-10-17T01:36:29.097Z,19.00
2018-10-17T01:37:29.842Z,18.00
2018-10-17T01:38:30.568Z,20.00
2018-10-17T01:39:31.290Z,19.00
2018-10-17T01:40:32.016Z,18.00
2018-10-17T01:41:32.747Z,21.00
2018-10-17T01:42:33.494Z,21.00
2018-10-17T01:43:34.218Z,20.00
2018-10-17T01:44:34.942Z,19.00
2018-10-17T01:45:35.692Z,19.00
2018-10-17T01:46:36.417Z,18.00
2018-10-17T01:47:37.142Z,20.00
2018-10-17T01:48:37.869Z,17.00
2018-10-17T01:49:38.593Z,20.00
2018-10-17T01:50:39.318Z,21.00
2018-10-17T01:51:40.041Z,20.00
2018-10-17T01:52:40.767Z,19.00
2018-10-17T01:53:41.492Z,19.00
2018-10-17T01:54:42.218Z,21.00
2018-10-17T01:55:42.965Z,18.00
2018-10-17T01:56:43.689Z,20.00
2018-10-17T01:57:44.414Z,19.00
2018-10-17T01:58:45.162Z,19.00
2018-10-17T01:59:45.891Z,21.00
2018-10-17T02:00:46.613Z,18.00
2018-10-17T02:01:47.337Z,23.00
2018-10-17T02:02:48.062Z,21.00
2018-10-17T02:03:48.788Z,20.00
2018-10-17T02:04:49.539Z,20.00
2018-10-17T02:05:50.263Z,20.00
2018-10-17T02:06:50.989Z,21.00
2018-10-17T02:07:51.715Z,19.00
2018-10-17T02:08:52.437Z,20.00
2018-10-17T02:09:53.162Z,24.00
2018-10-17T02:10:53.952Z,22.00
2018-10-17T02:11:54.631Z,20.00
2018-10-17T02:12:55.386Z,20.00
2018-10-17T02:13:56.083Z,23.00
2018-10-17T02:14:56.804Z,20.00
2018-10-17T02:15:57.551Z,20.00
2018-10-17T02:16:58.279Z,20.00
2018-10-17T02:17:59.000Z,22.00
2018-10-17T02:18:59.736Z,22.00
2018-10-17T02:20:00.698Z,22.00
2018-10-17T02:21:01.422Z,22.00
2018-10-17T02:22:02.149Z,20.00
2018-10-17T02:23:02.880Z,23.00
2018-10-17T02:24:03.595Z,19.00
2018-10-17T02:25:04.359Z,20.00
2018-10-17T02:26:05.043Z,17.00
2018-10-17T02:27:05.791Z,19.00
2018-10-17T02:28:06.516Z,20.00
2018-10-17T02:29:07.299Z,21.00
2018-10-17T02:30:08.073Z,23.00
2018-10-17T02:31:08.759Z,20.00
2018-10-17T02:32:09.414Z,21.00
2018-10-17T02:33:10.139Z,22.00
2018-10-17T02:34:10.886Z,21.00
2018-10-17T02:35:11.738Z,20.00
2018-10-17T02:36:12.340Z,20.00
2018-10-17T02:37:13.102Z,19.00
2018-10-17T02:38:13.785Z,19.00
2018-10-17T02:39:14.509Z,19.00
2018-10-17T02:40:15.234Z,21.00
2018-10-17T02:41:16.014Z,21.00
2018-10-17T02:42:16.683Z,18.00
2018-10-17T02:43:17.491Z,20.00
2018-10-17T02:44:18.133Z,19.00
2018-10-17T02:45:18.859Z,18.00
2018-10-17T02:46:19.583Z,20.00
2018-10-17T02:47:20.308Z,19.00
2018-10-17T02:48:21.033Z,20.00
2018-10-17T02:49:21.758Z,19.00
2018-10-17T02:50:22.484Z,22.00
2018-10-17T02:51:23.208Z,20.00
2018-10-17T02:52:23.935Z,21.00
2018-10-17T02:53:24.655Z,17.00
2018-10-17T02:54:25.389Z,20.00
2018-10-17T02:55:26.104Z,21.00
2018-10-17T02:56:26.852Z,22.00
2018-10-17T02:57:27.584Z,22.00
2018-10-17T02:58:28.331Z,23.00
2018-10-17T02:59:29.057Z,20.00
2018-10-17T03:00:29.779Z,24.00
2018-10-17T03:01:30.552Z,20.00
2018-10-17T03:02:31.230Z,22.00
2018-10-17T03:03:31.956Z,22.00
2018-10-17T03:04:32.701Z,20.00
2018-10-17T03:05:33.428Z,19.00
2018-10-17T03:06:34.152Z,21.00
2018-10-17T03:07:34.875Z,23.00
2018-10-17T03:08:35.601Z,24.00
2018-10-17T03:09:36.351Z,20.00
2018-10-17T03:10:37.078Z,25.00
2018-10-17T03:11:37.827Z,23.00
2018-10-17T03:12:38.551Z,22.00
2018-10-17T03:13:39.276Z,22.00
2018-10-17T03:14:40.001Z,25.00
2018-10-17T03:15:40.723Z,22.00
2018-10-17T03:16:41.447Z,22.00
2018-10-17T03:17:42.171Z,25.00
2018-10-17T03:18:42.895Z,21.00
2018-10-17T03:19:43.646Z,21.00
2018-10-17T03:20:44.396Z,23.00
2018-10-17T03:21:45.120Z,21.00
2018-10-17T03:22:45.844Z,23.00
2018-10-17T03:23:46.595Z,21.00
2018-10-17T03:24:47.323Z,22.00
2018-10-17T03:25:48.043Z,21.00
2018-10-17T03:26:48.769Z,22.00
2018-10-17T03:27:49.555Z,22.00
2018-10-17T03:28:50.239Z,21.00
2018-10-17T03:29:50.962Z,19.00
2018-10-17T03:30:51.736Z,25.00
2018-10-17T03:31:52.412Z,19.00
2018-10-17T03:32:53.136Z,23.00
2018-10-17T03:33:53.861Z,20.00
2018-10-17T03:34:54.594Z,21.00
2018-10-17T03:35:55.345Z,19.00
2018-10-17T03:36:56.127Z,22.00
2018-10-17T03:37:56.797Z,19.00
2018-10-17T03:38:57.521Z,20.00
2018-10-17T03:39:58.248Z,22.00
2018-10-17T03:40:59.008Z,21.00
2018-10-17T03:41:59.695Z,20.00
2018-10-17T03:43:00.459Z,21.00
2018-10-17T03:44:01.140Z,21.00
2018-10-17T03:45:01.867Z,22.00
2018-10-17T03:46:02.593Z,21.00
2018-10-17T03:47:03.362Z,21.00
2018-10-17T03:48:04.041Z,20.00
2018-10-17T03:49:04.817Z,22.00
2018-10-17T03:50:05.491Z,23.00
2018-10-17T03:51:06.214Z,21.00
2018-10-17T03:52:06.940Z,21.00
2018-10-17T03:53:07.780Z,21.00
2018-10-17T03:54:08.395Z,23.00
2018-10-17T03:55:09.160Z,21.00
2018-10-17T03:56:09.858Z,23.00
2018-10-17T03:57:10.580Z,22.00
2018-10-17T03:58:11.307Z,20.00
2018-10-17T03:59:12.081Z,22.00
2018-10-17T04:00:12.759Z,22.00
2018-10-17T04:01:13.616Z,23.00
2018-10-17T04:02:14.231Z,22.00
2018-10-17T04:03:15.016Z,20.00
2018-10-17T04:04:15.685Z,20.00
2018-10-17T04:05:16.517Z,23.00
2018-10-17T04:06:17.156Z,19.00
2018-10-17T04:07:17.973Z,23.00
2018-10-17T04:08:18.605Z,21.00
2018-10-17T04:09:19.330Z,20.00
2018-10-17T04:10:20.057Z,20.00
2018-10-17T04:11:20.786Z,24.00
2018-10-17T04:12:21.533Z,22.00
2018-10-17T04:13:22.281Z,22.00
2018-10-17T04:14:23.005Z,21.00
2018-10-17T04:15:23.730Z,23.00
2018-10-17T04:16:24.452Z,22.00
2018-10-17T04:17:25.177Z,20.00
2018-10-17T04:18:25.904Z,19.00
2018-10-17T04:19:26.628Z,21.00
2018-10-17T04:20:27.352Z,21.00
2018-10-17T04:21:28.077Z,20.00
2018-10-17T04:22:28.873Z,21.00
2018-10-17T04:23:29.523Z,21.00
2018-10-17T04:24:30.248Z,24.00
2018-10-17T04:25:30.976Z,21.00
2018-10-17T04:26:31.707Z,25.00
2018-10-17T04:27:32.445Z,23.00
2018-10-17T04:28:33.170Z,22.00
2018-10-17T04:29:33.898Z,21.00
2018-10-17T04:30:34.619Z,21.00
2018-10-17T04:31:35.344Z,23.00
2018-10-17T04:32:36.069Z,20.00
2018-10-17T04:33:36.820Z,23.00
2018-10-17T04:34:37.544Z,21.00
2018-10-17T04:35:38.268Z,23.00
2018-10-17T04:36:38.992Z,20.00
2018-10-17T04:37:39.717Z,23.00
2018-10-17T04:38:40.442Z,22.00
2018-10-17T04:39:41.167Z,23.00
2018-10-17T04:40:41.892Z,22.00
2018-10-17T04:41:42.619Z,22.00
2018-10-17T04:42:43.367Z,22.00
2018-10-17T04:43:44.094Z,23.00
2018-10-17T04:44:44.818Z,22.00
2018-10-17T04:45:45.545Z,21.00
2018-10-17T04:46:46.292Z,24.00
2018-10-17T04:47:47.121Z,22.00
2018-10-17T04:48:47.740Z,20.00
2018-10-17T04:49:48.465Z,22.00
2018-10-17T04:50:49.189Z,21.00
2018-10-17T04:51:49.913Z,22.00
2018-10-17T04:52:50.662Z,21.00
2018-10-17T04:53:51.387Z,22.00
2018-10-17T04:54:52.141Z,22.00
2018-10-17T04:55:52.884Z,20.00
2018-10-17T04:56:53.563Z,22.00
2018-10-17T04:57:54.287Z,22.00
2018-10-17T04:58:55.017Z,21.00
2018-10-17T04:59:55.760Z,21.00
2018-10-17T05:00:56.512Z,20.00
2018-10-17T05:01:57.209Z,21.00
2018-10-17T05:02:57.933Z,20.00
2018-10-17T05:03:58.658Z,20.00
2018-10-17T05:04:59.401Z,22.00
2018-10-17T05:06:00.108Z,23.00
2018-10-17T05:07:00.846Z,20.00
2018-10-17T05:08:01.562Z,21.00
2018-10-17T05:09:02.283Z,22.00
2018-10-17T05:10:03.005Z,22.00
2018-10-17T05:11:03.757Z,22.00
2018-10-17T05:12:04.458Z,22.00
2018-10-17T05:13:05.272Z,21.00
2018-10-17T05:14:05.931Z,20.00
2018-10-17T05:15:06.674Z,23.00
2018-10-17T05:16:07.406Z,21.00
2018-10-17T05:17:08.245Z,21.00
2018-10-17T05:18:08.871Z,19.00
2018-10-17T05:19:09.654Z,20.00
2018-10-17T05:20:10.324Z,23.00
2018-10-17T05:21:11.075Z,21.00
2018-10-17T05:22:11.795Z,17.00
2018-10-17T05:23:12.610Z,20.00
2018-10-17T05:24:13.245Z,20.00
2018-10-17T05:25:14.075Z,21.00
2018-10-17T05:26:14.695Z,19.00
2018-10-17T05:27:15.418Z,23.00
2018-10-17T05:28:16.143Z,20.00
2018-10-17T05:29:16.958Z,21.00
2018-10-17T05:30:17.593Z,19.00
2018-10-17T05:31:18.401Z,22.00
2018-10-17T05:32:19.066Z,20.00
2018-10-17T05:33:19.818Z,20.00
2018-10-17T05:34:20.552Z,19.00
2018-10-17T05:35:21.293Z,19.00
2018-10-17T05:36:22.016Z,19.00
2018-10-17T05:37:22.821Z,19.00
2018-10-17T05:38:23.474Z,18.00
2018-10-17T05:39:24.224Z,20.00
2018-10-17T05:40:24.948Z,22.00
2018-10-17T05:41:25.676Z,20.00
2018-10-17T05:42:26.400Z,21.00
2018-10-17T05:43:27.126Z,23.00
2018-10-17T05:44:27.873Z,21.00
2018-10-17T05:45:28.597Z,23.00
2018-10-17T05:46:29.324Z,22.00
2018-10-17T05:47:30.049Z,21.00
2018-10-17T05:48:30.778Z,20.00
2018-10-17T05:49:31.501Z,21.00
2018-10-17T05:50:32.225Z,19.00
2018-10-17T05:51:32.953Z,19.00
2018-10-17T05:52:33.680Z,17.00
2018-10-17T05:53:34.407Z,22.00
2018-10-17T05:54:35.134Z,20.00
2018-10-17T05:55:35.935Z,22.00
2018-10-17T05:56:36.590Z,21.00
2018-10-17T05:57:37.320Z,21.00
2018-10-17T05:58:38.046Z,23.00
2018-10-17T05:59:38.773Z,21.00
2018-10-17T06:00:39.501Z,21.00
2018-10-17T06:01:40.279Z,19.00
2018-10-17T06:02:40.978Z,21.00
2018-10-17T06:03:41.707Z,21.00
2018-10-17T06:04:42.437Z,21.00
2018-10-17T06:05:43.163Z,20.00
2018-10-17T06:06:43.890Z,20.00
2018-10-17T06:07:44.629Z,21.00
2018-10-17T06:08:45.343Z,20.00
2018-10-17T06:09:46.072Z,20.00
2018-10-17T06:10:46.801Z,20.00
2018-10-17T06:11:47.529Z,22.00
2018-10-17T06:12:48.255Z,19.00
2018-10-17T06:13:48.982Z,22.00
2018-10-17T06:14:49.711Z,22.00
2018-10-17T06:15:50.440Z,20.00
2018-10-17T06:16:51.212Z,21.00
2018-10-17T06:17:51.900Z,21.00
2018-10-17T06:18:52.633Z,20.00
2018-10-17T06:19:53.354Z,21.00
2018-10-17T06:20:54.081Z,20.00
2018-10-17T06:21:54.808Z,23.00
2018-10-17T06:22:55.571Z,21.00
2018-10-17T06:23:56.267Z,22.00
2018-10-17T06:24:57.039Z,20.00
2018-10-17T06:25:57.728Z,23.00
2018-10-17T06:26:58.458Z,23.00
2018-10-17T06:27:59.212Z,22.00
2018-10-17T06:29:00.013Z,20.00
2018-10-17T06:30:00.690Z,19.00
2018-10-17T06:31:01.504Z,21.00
2018-10-17T06:32:02.176Z,20.00
2018-10-17T06:33:02.925Z,21.00
2018-10-17T06:34:03.719Z,23.00
2018-10-17T06:35:04.443Z,20.00
2018-10-17T06:36:05.112Z,22.00
2018-10-17T06:37:05.874Z,19.00
2018-10-17T06:38:06.572Z,21.00
2018-10-17T06:39:07.303Z,23.00
2018-10-17T06:40:08.033Z,20.00
2018-10-17T06:41:08.770Z,24.00
2018-10-17T06:42:09.491Z,21.00
2018-10-17T06:43:10.306Z,23.00
2018-10-17T06:44:11.075Z,22.00
2018-10-17T06:45:11.678Z,23.00
2018-10-17T06:46:12.407Z,23.00
2018-10-17T06:47:13.212Z,21.00
2018-10-17T06:48:13.868Z,22.00
2018-10-17T06:49:14.629Z,19.00
2018-10-17T06:50:15.328Z,20.00
2018-10-17T06:51:16.070Z,21.00
2018-10-17T06:52:16.806Z,22.00
2018-10-17T06:53:17.542Z,18.00
2018-10-17T06:54:18.323Z,22.00
2018-10-17T06:55:19.062Z,21.00
2018-10-17T06:56:19.723Z,23.00
2018-10-17T06:57:20.455Z,22.00
2018-10-17T06:58:21.209Z,23.00
2018-10-17T06:59:21.941Z,21.00
2018-10-17T07:00:22.673Z,19.00
2018-10-17T07:01:23.404Z,19.00
2018-10-17T07:02:24.159Z,20.00
2018-10-17T07:03:24.885Z,19.00
2018-10-17T07:04:25.640Z,21.00
2018-10-17T07:05:26.374Z,23.00
2018-10-17T07:06:27.128Z,22.00
2018-10-17T07:07:27.863Z,21.00
2018-10-17T07:08:28.629Z,19.00
2018-10-17T07:09:29.364Z,22.00
2018-10-17T07:10:30.096Z,20.00
2018-10-17T07:11:30.827Z,21.00
2018-10-17T07:12:31.559Z,21.00
2018-10-17T07:13:32.292Z,21.00
2018-10-17T07:14:33.023Z,21.00
2018-10-17T07:15:33.866Z,21.00
2018-10-17T07:16:34.481Z,20.00
2018-10-17T07:17:35.214Z,21.00
2018-10-17T07:18:35.945Z,22.00
2018-10-17T07:19:36.700Z,21.00
2018-10-17T07:20:37.451Z,21.00
2018-10-17T07:21:38.180Z,21.00
2018-10-17T07:22:38.911Z,20.00
2018-10-17T07:23:39.644Z,19.00
2018-10-17T07:24:40.375Z,20.00
2018-10-17T07:25:41.108Z,22.00
2018-10-17T07:26:41.838Z,20.00
2018-10-17T07:27:42.574Z,21.00
2018-10-17T07:28:43.383Z,22.00
2018-10-17T07:29:44.160Z,20.00
2018-10-17T07:30:44.768Z,21.00
2018-10-17T07:31:45.501Z,20.00
2018-10-17T07:32:46.237Z,19.00
2018-10-17T07:33:46.966Z,19.00
2018-10-17T07:34:47.698Z,23.00
2018-10-17T07:35:48.499Z,18.00
2018-10-17T07:36:49.185Z,21.00
2018-10-17T07:37:49.920Z,19.00
2018-10-17T07:38:50.651Z,19.00
2018-10-17T07:39:51.383Z,20.00
2018-10-17T07:40:52.142Z,19.00
2018-10-17T07:41:52.918Z,19.00
2018-10-17T07:42:53.635Z,21.00
2018-10-17T07:43:54.364Z,16.00
2018-10-17T07:44:55.103Z,21.00
2018-10-17T07:45:55.856Z,20.00
2018-10-17T07:46:56.592Z,18.00
2018-10-17T07:47:57.341Z,21.00
2018-10-17T07:48:58.055Z,19.00
2018-10-17T07:49:58.789Z,19.00
2018-10-17T07:50:59.521Z,19.00
2018-10-17T07:52:00.256Z,18.00
2018-10-17T07:53:01.025Z,17.00
2018-10-17T07:54:01.786Z,20.00
2018-10-17T07:55:02.456Z,17.00
2018-10-17T07:56:03.191Z,21.00
2018-10-17T07:57:03.923Z,18.00
2018-10-17T07:58:04.681Z,19.00
2018-10-17T07:59:05.418Z,19.00
2018-10-17T08:00:06.215Z,20.00
2018-10-17T08:01:06.906Z,17.00
2018-10-17T08:02:07.642Z,17.00
2018-10-17T08:03:08.376Z,19.00
2018-10-17T08:04:09.111Z,20.00
2018-10-17T08:05:09.846Z,17.00
2018-10-17T08:06:10.648Z,17.00
2018-10-17T08:07:11.315Z,17.00
2018-10-17T08:08:12.051Z,18.00
2018-10-17T08:09:12.787Z,18.00
2018-10-17T08:10:13.519Z,18.00
2018-10-17T08:11:14.257Z,16.00
2018-10-17T08:12:15.110Z,17.00
2018-10-17T08:13:15.760Z,17.00
2018-10-17T08:14:16.556Z,15.00
2018-10-17T08:15:17.238Z,13.00
2018-10-17T08:16:17.974Z,16.00
2018-10-17T08:17:18.709Z,15.00
2018-10-17T08:18:19.510Z,15.00
2018-10-17T08:19:20.179Z,15.00
2018-10-17T08:20:20.912Z,15.00
2018-10-17T08:21:21.710Z,13.00
2018-10-17T08:22:22.405Z,14.00
2018-10-17T08:23:23.141Z,13.00
2018-10-17T08:24:23.877Z,14.00
2018-10-17T08:25:24.616Z,14.00
2018-10-17T08:26:25.347Z,15.00
2018-10-17T08:27:26.136Z,14.00
2018-10-17T08:28:26.818Z,12.00
2018-10-17T08:29:27.549Z,14.00
2018-10-17T08:30:28.284Z,12.00
2018-10-17T08:31:29.021Z,13.00
2018-10-17T08:32:29.757Z,12.00
2018-10-17T08:33:30.495Z,13.00
2018-10-17T08:34:31.229Z,14.00
2018-10-17T08:35:32.266Z,13.00
2018-10-17T08:36:32.863Z,13.00
2018-10-17T08:37:33.822Z,13.00
2018-10-17T08:38:34.173Z,14.00
2018-10-17T08:39:34.910Z,15.00
2018-10-17T08:40:35.646Z,16.00
2018-10-17T08:41:36.382Z,14.00
2018-10-17T08:42:37.119Z,16.00
2018-10-17T08:43:37.859Z,14.00
2018-10-17T08:44:38.599Z,15.00
2018-10-17T08:45:39.337Z,13.00
2018-10-17T08:46:40.077Z,14.00
2018-10-17T08:47:40.816Z,13.00
2018-10-17T08:48:41.561Z,14.00
2018-10-17T08:49:42.307Z,16.00
2018-10-17T08:50:43.126Z,14.00
2018-10-17T08:51:43.793Z,14.00
2018-10-17T08:52:44.537Z,14.00
2018-10-17T08:53:45.283Z,13.00
2018-10-17T08:54:46.029Z,15.00
2018-10-17T08:55:46.775Z,14.00
2018-10-17T08:56:47.517Z,13.00
2018-10-17T08:57:48.282Z,13.00
2018-10-17T08:58:49.004Z,14.00
2018-10-17T08:59:49.764Z,14.00
2018-10-17T09:00:50.508Z,13.00
2018-10-17T09:01:51.258Z,14.00
2018-10-17T09:02:51.995Z,13.00
2018-10-17T09:03:52.740Z,13.00
2018-10-17T09:04:53.487Z,14.00
2018-10-17T09:05:54.257Z,16.00
2018-10-17T09:06:55.005Z,16.00
2018-10-17T09:07:55.804Z,16.00
2018-10-17T09:08:56.519Z,12.00
2018-10-17T09:09:57.263Z,12.00
2018-10-17T09:10:58.006Z,12.00
2018-10-17T09:11:58.777Z,13.00
2018-10-17T09:12:59.492Z,12.00
2018-10-17T09:14:00.250Z,13.00
2018-10-17T09:15:00.979Z,13.00
2018-10-17T09:16:01.751Z,11.00
2018-10-17T09:17:02.487Z,13.00
2018-10-17T09:18:03.245Z,11.00
2018-10-17T09:19:03.974Z,11.00
2018-10-17T09:20:05.100Z,11.00
2018-10-17T09:21:05.870Z,11.00
2018-10-17T09:22:06.643Z,13.00
2018-10-17T09:23:06.994Z,12.00
2018-10-17T09:24:07.744Z,10.00
2018-10-17T09:25:08.540Z,11.00
2018-10-17T09:26:09.228Z,10.00
2018-10-17T09:27:09.996Z,9.00
2018-10-17T09:28:10.871Z,10.00
2018-10-17T09:29:11.483Z,12.00
2018-10-17T09:30:12.245Z,9.00
2018-10-17T09:31:12.969Z,12.00
2018-10-17T09:32:13.712Z,9.00
2018-10-17T09:33:14.457Z,13.00
2018-10-17T09:34:15.390Z,11.00
2018-10-17T09:35:16.047Z,11.00
2018-10-17T09:36:16.779Z,11.00
2018-10-17T09:37:17.476Z,12.00
2018-10-17T09:38:18.247Z,12.00
2018-10-17T09:39:19.018Z,11.00
2018-10-17T09:40:19.859Z,11.00
2018-10-17T09:41:20.534Z,12.00
2018-10-17T09:42:21.359Z,10.00
2018-10-17T09:43:22.093Z,10.00
2018-10-17T09:44:22.769Z,11.00
2018-10-17T09:45:23.514Z,9.00
2018-10-17T09:46:24.260Z,10.00
2018-10-17T09:47:25.007Z,12.00
2018-10-17T09:48:25.754Z,10.00
2018-10-17T09:49:26.500Z,10.00
2018-10-17T09:50:27.245Z,10.00
2018-10-17T09:51:27.996Z,10.00
2018-10-17T09:52:28.737Z,10.00
2018-10-17T09:53:29.623Z,10.00
2018-10-17T09:54:30.282Z,9.00
2018-10-17T09:55:30.974Z,12.00
2018-10-17T09:56:31.743Z,10.00
2018-10-17T09:57:32.540Z,12.00
2018-10-17T09:58:33.283Z,10.00
2018-10-17T09:59:34.030Z,10.00
2018-10-17T10:00:34.778Z,12.00
2018-10-17T10:01:35.528Z,10.00
2018-10-17T10:02:36.295Z,12.00
2018-10-17T10:03:37.040Z,12.00
2018-10-17T10:04:37.786Z,12.00
2018-10-17T10:05:38.533Z,10.00
2018-10-17T10:06:39.283Z,11.00
2018-10-17T10:07:40.074Z,12.00
2018-10-17T10:08:40.818Z,11.00
2018-10-17T10:09:41.589Z,12.00
2018-10-17T10:10:42.334Z,12.00
2018-10-17T10:11:43.079Z,11.00
2018-10-17T10:12:43.847Z,12.00
2018-10-17T10:13:44.593Z,9.00
2018-10-17T10:14:45.339Z,9.00
2018-10-17T10:15:46.108Z,10.00
2018-10-17T10:16:46.856Z,12.00
2018-10-17T10:17:47.626Z,11.00
2018-10-17T10:18:48.370Z,12.00
2018-10-17T10:19:49.141Z,12.00
2018-10-17T10:20:49.887Z,13.00
2018-10-17T10:21:50.631Z,22.00
2018-10-17T10:22:51.436Z,27.00
2018-10-17T10:23:52.124Z,42.00
2018-10-17T10:24:52.915Z,35.00
2018-10-17T10:25:53.640Z,20.00
2018-10-17T10:26:54.384Z,12.00
2018-10-17T10:27:55.201Z,13.00
2018-10-17T10:28:55.877Z,9.00
2018-10-17T10:29:56.797Z,11.00
2018-10-17T10:30:57.390Z,11.00
2018-10-17T10:31:58.136Z,10.00
2018-10-17T10:32:58.888Z,11.00
2018-10-17T10:33:59.728Z,10.00
2018-10-17T10:35:00.404Z,11.00
2018-10-17T10:36:01.159Z,11.00
2018-10-17T10:37:01.918Z,10.00
2018-10-17T10:38:02.689Z,12.00
2018-10-17T10:39:03.437Z,10.00
2018-10-17T10:40:04.191Z,10.00
2018-10-17T10:41:04.929Z,11.00
2018-10-17T10:42:05.725Z,11.00
2018-10-17T10:43:06.423Z,11.00
2018-10-17T10:44:07.252Z,11.00
2018-10-17T10:45:08.000Z,11.00
2018-10-17T10:46:08.664Z,12.00
2018-10-17T10:47:09.410Z,12.00
2018-10-17T10:48:10.214Z,11.00
2018-10-17T10:49:10.971Z,11.00
2018-10-17T10:50:11.680Z,13.00
2018-10-17T10:51:12.476Z,11.00
2018-10-17T10:52:13.143Z,11.00
2018-10-17T10:53:13.889Z,10.00
2018-10-17T10:54:14.710Z,10.00
2018-10-17T10:55:15.380Z,11.00
2018-10-17T10:56:16.217Z,10.00
2018-10-17T10:57:16.963Z,12.00
2018-10-17T10:58:17.759Z,13.00
2018-10-17T10:59:18.475Z,11.00
2018-10-17T11:00:19.278Z,12.00
2018-10-17T11:01:19.893Z,11.00
2018-10-17T11:02:20.638Z,12.00
2018-10-17T11:03:21.388Z,13.00
2018-10-17T11:04:22.126Z,10.00
2018-10-17T11:05:23.076Z,12.00
2018-10-17T11:06:23.635Z,12.00
2018-10-17T11:07:24.382Z,12.00
2018-10-17T11:08:25.121Z,12.00
2018-10-17T11:09:25.863Z,12.00
2018-10-17T11:10:26.606Z,11.00
2018-10-17T11:11:27.350Z,13.00
2018-10-17T11:12:28.093Z,12.00
2018-10-17T11:13:28.837Z,12.00
2018-10-17T11:14:29.692Z,14.00
2018-10-17T11:15:30.325Z,11.00
2018-10-17T11:16:31.071Z,12.00
2018-10-17T11:17:31.816Z,12.00
2018-10-17T11:18:32.561Z,14.00
2018-10-17T11:19:33.337Z,12.00
2018-10-17T11:20:34.077Z,13.00
2018-10-17T11:21:34.821Z,13.00
2018-10-17T11:22:35.565Z,11.00
2018-10-17T11:23:36.309Z,12.00
2018-10-17T11:24:37.056Z,14.00
2018-10-17T11:25:37.799Z,12.00
2018-10-17T11:26:38.542Z,12.00
2018-10-17T11:27:39.286Z,12.00
2018-10-17T11:28:40.030Z,11.00
2018-10-17T11:29:40.776Z,11.00
2018-10-17T11:30:41.517Z,12.00
2018-10-17T11:31:42.324Z,14.00
2018-10-17T11:32:43.002Z,11.00
2018-10-17T11:33:43.748Z,12.00
2018-10-17T11:34:44.487Z,13.00
2018-10-17T11:35:45.231Z,13.00
2018-10-17T11:36:45.973Z,12.00
2018-10-17T11:37:46.763Z,12.00
2018-10-17T11:38:47.454Z,12.00
2018-10-17T11:39:48.200Z,14.00
2018-10-17T11:40:48.947Z,11.00
2018-10-17T11:41:49.707Z,11.00
2018-10-17T11:42:50.450Z,13.00
2018-10-17T11:43:51.188Z,12.00
2018-10-17T11:44:51.938Z,12.00
2018-10-17T11:45:52.669Z,11.00
2018-10-17T11:46:53.425Z,13.00
2018-10-17T11:47:54.216Z,13.00
2018-10-17T11:48:54.890Z,13.00
2018-10-17T11:49:55.628Z,12.00
2018-10-17T11:50:56.393Z,11.00
2018-10-17T11:51:57.108Z,12.00
2018-10-17T11:52:57.889Z,12.00
2018-10-17T11:53:58.612Z,12.00
2018-10-17T11:54:59.354Z,27.00
2018-10-17T11:56:00.101Z,57.00
2018-10-17T11:57:00.919Z,25.00
2018-10-17T11:58:01.600Z,27.00
2018-10-17T11:59:02.409Z,19.00
2018-10-17T12:00:03.076Z,14.00
2018-10-17T12:01:03.814Z,14.00
2018-10-17T12:02:04.552Z,12.00
2018-10-17T12:03:05.368Z,12.00
2018-10-17T12:04:06.345Z,10.00
2018-10-17T12:05:06.989Z,12.00
2018-10-17T12:06:07.634Z,11.00
2018-10-17T12:07:08.271Z,11.00
2018-10-17T12:08:09.012Z,11.00
2018-10-17T12:09:09.815Z,12.00
2018-10-17T12:10:10.490Z,12.00
2018-10-17T12:11:11.296Z,11.00
2018-10-17T12:12:11.986Z,12.00
2018-10-17T12:13:12.704Z,12.00
2018-10-17T12:14:13.442Z,13.00
2018-10-17T12:15:14.235Z,13.00
2018-10-17T12:16:14.915Z,11.00
2018-10-17T12:17:15.654Z,10.00
2018-10-17T12:18:16.415Z,12.00
2018-10-17T12:19:17.185Z,13.00
2018-10-17T12:20:17.870Z,12.00
2018-10-17T12:21:18.666Z,14.00
2018-10-17T12:22:19.346Z,11.00
2018-10-17T12:23:20.084Z,12.00
2018-10-17T12:24:20.825Z,11.00
2018-10-17T12:25:21.558Z,14.00
2018-10-17T12:26:22.298Z,12.00
2018-10-17T12:27:23.062Z,13.00
2018-10-17T12:28:23.864Z,13.00
2018-10-17T12:29:24.561Z,12.00
2018-10-17T12:30:25.298Z,11.00
2018-10-17T12:31:26.035Z,14.00
2018-10-17T12:32:26.775Z,12.00
2018-10-17T12:33:27.539Z,10.00
2018-10-17T12:34:28.276Z,11.00
2018-10-17T12:35:29.016Z,12.00
2018-10-17T12:36:29.758Z,14.00
2018-10-17T12:37:30.496Z,13.00
2018-10-17T12:38:31.235Z,14.00
2018-10-17T12:39:32.087Z,13.00
2018-10-17T12:40:32.882Z,11.00
2018-10-17T12:41:33.527Z,13.00
2018-10-17T12:42:34.215Z,15.00
2018-10-17T12:43:34.967Z,12.00
2018-10-17T12:44:35.692Z,12.00
2018-10-17T12:45:36.469Z,12.00
2018-10-17T12:46:37.194Z,11.00
2018-10-17T12:47:37.938Z,11.00
2018-10-17T12:48:38.675Z,13.00
2018-10-17T12:49:39.462Z,14.00
2018-10-17T12:50:40.157Z,12.00
2018-10-17T12:51:40.920Z,10.00
2018-10-17T12:52:41.717Z,13.00
2018-10-17T12:53:42.421Z,13.00
2018-10-17T12:54:43.183Z,13.00
2018-10-17T12:55:43.923Z,12.00
2018-10-17T12:56:44.657Z,13.00
2018-10-17T12:57:45.397Z,12.00
2018-10-17T12:58:46.134Z,12.00
2018-10-17T12:59:46.876Z,11.00
2018-10-17T13:00:47.617Z,14.00
2018-10-17T13:01:48.354Z,13.00